Time;durP1;ratioP1;P1;durP2;ratioP2;P2;SDS_P1;SDS_P2;PMS_P1;PMS_P2;Temp;Humidity;BMP_temperature;BMP_pressure;BME280_temperature;BME280_humidity;BME280_pressure;Samples;Min_cycle;Max_cycle;Signal;HPM_P1;HPM_P2
2020/12/12 00:01:20;;;;;;;15.00;10.90;;;8.80;64.10;;;;;;5013218;28;20686;-40
2020/12/12 00:03:45;;;;;;;12.10;9.33;;;8.90;63.90;;;;;;5013435;28;20688;-40
2020/12/12 00:06:11;;;;;;;14.27;10.03;;;8.90;63.80;;;;;;5011374;28;20665;-40
2020/12/12 00:08:37;;;;;;;14.70;10.60;;;8.50;64.40;;;;;;5013048;28;20198;-40
2020/12/12 00:11:03;;;;;;;12.33;9.43;;;8.30;65.50;;;;;;5013252;28;20650;-40
2020/12/12 00:13:28;;;;;;;16.07;10.27;;;8.30;65.80;;;;;;5014149;28;20437;-40
2020/12/12 00:15:54;;;;;;;15.30;9.93;;;8.30;65.70;;;;;;5012340;28;20193;-40
2020/12/12 00:18:20;;;;;;;13.90;9.07;;;8.20;66.10;;;;;;5013604;28;20436;-40
2020/12/12 00:20:45;;;;;;;13.60;10.50;;;8.30;65.90;;;;;;5013625;28;20194;-40
2020/12/12 00:23:11;;;;;;;14.87;9.73;;;8.10;66.60;;;;;;5012947;28;20281;-40
2020/12/12 00:25:36;;;;;;;14.13;9.83;;;8.00;66.50;;;;;;5012978;28;20197;-40
2020/12/12 00:28:02;;;;;;;16.27;11.00;;;7.80;67.70;;;;;;5011902;28;20672;-40
2020/12/12 00:30:27;;;;;;;14.13;10.27;;;7.70;68.10;;;;;;5013044;28;20222;-41
2020/12/12 00:32:53;;;;;;;14.40;9.53;;;7.70;68.20;;;;;;5010989;28;20272;-40
2020/12/12 00:35:18;;;;;;;15.30;10.57;;;7.70;69.10;;;;;;5012637;28;20296;-40
2020/12/12 00:37:44;;;;;;;14.40;9.70;;;7.70;68.70;;;;;;5011793;28;20697;-40
2020/12/12 00:40:10;;;;;;;15.80;10.50;;;7.80;68.50;;;;;;5013377;28;20193;-40
2020/12/12 00:42:35;;;;;;;12.90;9.37;;;7.70;68.40;;;;;;5012567;28;20209;-40
2020/12/12 00:45:01;;;;;;;13.47;10.30;;;7.60;68.90;;;;;;5012292;28;20186;-40
2020/12/12 00:47:27;;;;;;;14.73;9.13;;;7.40;69.60;;;;;;5012390;28;20220;-40
2020/12/12 00:49:52;;;;;;;13.90;10.30;;;7.40;70.30;;;;;;5012237;28;20229;-40
2020/12/12 00:52:18;;;;;;;13.73;10.30;;;7.50;70.10;;;;;;5011811;28;20701;-40
2020/12/12 00:54:44;;;;;;;13.30;9.97;;;7.60;69.70;;;;;;5012736;28;20218;-40
2020/12/12 00:57:10;;;;;;;15.73;10.30;;;7.50;69.80;;;;;;5011504;28;20248;-40
2020/12/12 00:59:36;;;;;;;13.73;9.20;;;7.50;70.20;;;;;;5011980;28;20217;-40
2020/12/12 01:02:02;;;;;;;14.23;10.40;;;7.60;69.90;;;;;;5011481;28;20483;-40
2020/12/12 01:04:27;;;;;;;13.27;10.23;;;7.40;69.70;;;;;;5012787;28;20437;-40
2020/12/12 01:06:53;;;;;;;14.00;10.00;;;7.40;69.90;;;;;;5012047;28;20732;-40
2020/12/12 01:09:18;;;;;;;18.10;10.83;;;7.30;70.40;;;;;;5012412;28;20676;-40
2020/12/12 01:11:44;;;;;;;16.73;10.20;;;7.30;70.60;;;;;;5011934;28;20189;-40
2020/12/12 01:14:10;;;;;;;13.00;8.80;;;7.40;70.70;;;;;;5011652;28;20201;-40
2020/12/12 01:16:35;;;;;;;16.50;10.50;;;7.40;70.00;;;;;;5011359;28;20205;-40
2020/12/12 01:19:01;;;;;;;13.00;8.83;;;7.50;69.60;;;;;;5012051;28;20229;-40
2020/12/12 01:21:27;;;;;;;15.30;11.30;;;7.40;69.70;;;;;;5011504;28;20194;-40
2020/12/12 01:23:52;;;;;;;15.30;10.37;;;7.40;69.90;;;;;;5012210;28;20197;-40
2020/12/12 01:26:18;;;;;;;16.10;11.00;;;7.30;69.60;;;;;;5011437;28;20225;-40
2020/12/12 01:28:43;;;;;;;14.53;10.73;;;7.30;69.50;;;;;;5010690;28;20190;-40
2020/12/12 01:31:13;;;;;;;13.33;8.93;;;7.40;69.80;;;;;;5006340;28;20221;-40
2020/12/12 01:33:40;;;;;;;13.90;9.63;;;7.50;69.60;;;;;;5012264;28;20674;-40
2020/12/12 01:36:08;;;;;;;14.27;10.37;;;7.70;69.10;;;;;;5010671;28;20437;-40
2020/12/12 01:38:37;;;;;;;13.40;10.53;;;7.70;68.20;;;;;;5012291;28;20484;-40
2020/12/12 01:41:03;;;;;;;16.50;10.83;;;7.80;67.70;;;;;;5011412;28;20535;-40
2020/12/12 01:43:29;;;;;;;15.47;9.73;;;7.70;67.50;;;;;;5010522;28;20537;-40
2020/12/12 01:45:55;;;;;;;14.20;9.50;;;7.60;68.00;;;;;;5010653;28;20468;-41
2020/12/12 01:48:20;;;;;;;17.63;10.80;;;7.40;68.20;;;;;;5011808;28;20522;-40
2020/12/12 01:50:46;;;;;;;15.93;10.33;;;7.30;68.60;;;;;;5011325;28;20676;-40
2020/12/12 01:53:13;;;;;;;15.20;10.60;;;7.30;68.90;;;;;;5007199;28;20642;-40
2020/12/12 01:55:48;;;;;;;18.20;11.20;;;7.50;68.60;;;;;;5009591;28;20189;-40
2020/12/12 01:58:17;;;;;;;15.03;11.03;;;7.50;68.70;;;;;;5011058;28;20498;-40
2020/12/12 02:00:43;;;;;;;15.10;10.43;;;7.30;69.10;;;;;;5011323;28;20507;-40
2020/12/12 02:03:12;;;;;;;14.70;10.87;;;7.40;69.30;;;;;;5011087;28;20528;-40
2020/12/12 02:05:45;;;;;;;17.63;11.40;;;7.30;69.50;;;;;;5011260;28;20951;-40
2020/12/12 02:08:14;;;;;;;14.13;10.17;;;7.10;69.90;;;;;;5011032;28;20453;-40
2020/12/12 02:10:46;;;;;;;14.37;10.60;;;7.30;69.80;;;;;;4999880;28;20444;-40
2020/12/12 02:13:14;;;;;;;17.40;10.73;;;7.20;69.80;;;;;;5011310;28;20435;-40
2020/12/12 02:15:40;;;;;;;13.93;10.53;;;7.20;69.50;;;;;;5009138;28;20441;-40
2020/12/12 02:18:07;;;;;;;15.50;11.33;;;7.20;69.20;;;;;;5010687;28;20847;-40
2020/12/12 02:20:33;;;;;;;14.60;10.30;;;7.20;69.20;;;;;;5011168;28;20197;-40
2020/12/12 02:23:00;;;;;;;19.63;12.33;;;7.20;69.50;;;;;;5009749;28;20433;-40
2020/12/12 02:25:26;;;;;;;15.97;11.07;;;7.50;69.00;;;;;;5008793;28;20448;-40
2020/12/12 02:27:55;;;;;;;17.23;12.77;;;7.40;68.10;;;;;;5014215;28;20516;-40
2020/12/12 02:30:22;;;;;;;13.47;11.03;;;7.30;68.50;;;;;;5010851;28;20437;-40
2020/12/12 02:32:47;;;;;;;15.60;11.67;;;7.40;69.00;;;;;;5010288;28;20467;-40
2020/12/12 02:35:13;;;;;;;17.10;11.43;;;7.10;68.90;;;;;;5010265;28;20956;-40
2020/12/12 02:37:39;;;;;;;17.23;11.20;;;7.20;69.50;;;;;;5009868;28;20336;-40
2020/12/12 02:40:05;;;;;;;19.23;13.20;;;7.10;69.10;;;;;;5010793;28;20523;-40
2020/12/12 02:42:31;;;;;;;14.90;10.60;;;7.00;69.10;;;;;;5010243;28;20205;-40
2020/12/12 02:44:57;;;;;;;18.87;12.20;;;7.00;69.60;;;;;;5010165;28;20437;-40
2020/12/12 02:47:23;;;;;;;16.60;12.50;;;7.00;69.90;;;;;;5009685;28;20441;-40
2020/12/12 02:50:07;;;;;;;16.83;11.57;;;6.90;69.00;;;;;;5010273;28;20238;-40
2020/12/12 02:52:33;;;;;;;15.50;11.67;;;6.90;68.90;;;;;;5007817;28;20474;-40
2020/12/12 02:54:59;;;;;;;16.83;12.13;;;7.10;68.70;;;;;;5010067;28;20449;-40
2020/12/12 02:57:24;;;;;;;16.77;11.70;;;7.30;67.60;;;;;;5010099;28;20225;-40
2020/12/12 02:59:50;;;;;;;15.57;11.03;;;7.50;66.80;;;;;;5009806;28;20190;-40
2020/12/12 03:02:15;;;;;;;17.50;10.87;;;7.40;66.80;;;;;;5008799;28;20375;-40
2020/12/12 03:04:41;;;;;;;15.33;11.60;;;7.30;66.50;;;;;;5010266;28;20208;-40
2020/12/12 03:07:06;;;;;;;19.40;11.27;;;7.40;67.50;;;;;;5009371;28;20244;-40
2020/12/12 03:09:32;;;;;;;15.33;11.50;;;7.30;66.60;;;;;;5010756;28;20301;-40
2020/12/12 03:11:57;;;;;;;16.57;11.40;;;7.30;66.50;;;;;;5010521;28;20209;-40
2020/12/12 03:14:23;;;;;;;15.80;11.30;;;7.40;66.90;;;;;;5010295;28;20204;-40
2020/12/12 03:16:49;;;;;;;16.20;12.80;;;7.50;66.50;;;;;;5009519;28;20202;-40
2020/12/12 03:19:14;;;;;;;17.73;12.53;;;7.50;66.30;;;;;;5008707;28;20276;-40
2020/12/12 03:21:40;;;;;;;15.20;10.90;;;7.40;66.30;;;;;;5009658;28;20205;-40
2020/12/12 03:24:05;;;;;;;17.80;11.80;;;7.30;66.70;;;;;;5010237;28;20190;-40
2020/12/12 03:26:31;;;;;;;19.70;12.73;;;7.40;66.90;;;;;;5009188;28;20201;-40
2020/12/12 03:28:56;;;;;;;17.70;11.33;;;7.40;66.60;;;;;;5009854;28;20209;-40
2020/12/12 03:31:22;;;;;;;17.27;11.50;;;7.50;66.80;;;;;;5009904;28;20209;-40
2020/12/12 03:33:48;;;;;;;17.17;11.93;;;7.60;66.10;;;;;;5009797;28;20297;-40
2020/12/12 03:36:13;;;;;;;17.50;12.07;;;7.70;65.60;;;;;;5008615;28;20271;-40
2020/12/12 03:38:39;;;;;;;22.77;13.27;;;7.80;65.90;;;;;;5010245;28;20316;-40
2020/12/12 03:41:04;;;;;;;15.10;10.83;;;7.60;65.80;;;;;;5010057;28;20660;-40
2020/12/12 03:43:30;;;;;;;15.27;11.30;;;7.70;66.30;;;;;;5010244;28;20720;-40
2020/12/12 03:45:55;;;;;;;17.40;11.27;;;7.60;66.30;;;;;;5009028;28;20224;-40
2020/12/12 03:48:21;;;;;;;15.10;10.53;;;7.60;66.70;;;;;;5008580;28;20233;-40
2020/12/12 03:50:46;;;;;;;18.60;10.33;;;7.60;66.80;;;;;;5009755;28;20205;-40
2020/12/12 03:53:12;;;;;;;16.77;11.23;;;7.80;66.70;;;;;;5009556;28;20273;-41
2020/12/12 03:55:38;;;;;;;15.53;10.73;;;8.00;66.00;;;;;;5008821;28;20662;-40
2020/12/12 03:58:03;;;;;;;16.60;11.53;;;8.10;65.30;;;;;;5009543;28;20294;-40
2020/12/12 04:00:29;;;;;;;17.57;11.70;;;8.40;64.40;;;;;;5009957;28;20190;-40
2020/12/12 04:02:54;;;;;;;16.87;11.30;;;8.50;64.10;;;;;;5009169;28;20676;-40
2020/12/12 04:05:20;;;;;;;14.70;11.10;;;8.60;63.20;;;;;;5009073;28;20232;-40
2020/12/12 04:07:45;;;;;;;16.27;11.17;;;8.80;62.80;;;;;;5009522;28;20186;-40
2020/12/12 04:10:11;;;;;;;15.10;11.93;;;9.00;62.20;;;;;;5010454;28;20182;-40
2020/12/12 04:12:37;;;;;;;17.17;11.93;;;9.10;61.70;;;;;;5010234;28;20189;-40
2020/12/12 04:15:03;;;;;;;15.80;11.20;;;9.20;61.30;;;;;;5011421;28;20198;-41
2020/12/12 04:17:29;;;;;;;14.43;11.10;;;9.40;61.00;;;;;;5012822;28;20237;-40
2020/12/12 04:19:55;;;;;;;17.43;11.40;;;9.40;60.50;;;;;;5013287;28;20484;-40
2020/12/12 04:22:21;;;;;;;15.37;11.73;;;9.40;60.40;;;;;;5013298;28;20522;-40
2020/12/12 04:24:47;;;;;;;14.67;10.07;;;9.50;60.20;;;;;;5013484;28;20425;-40
2020/12/12 04:27:12;;;;;;;15.60;10.70;;;9.40;59.80;;;;;;5012929;28;20780;-40
2020/12/12 04:29:38;;;;;;;15.67;11.77;;;9.50;59.80;;;;;;5013205;28;20276;-40
2020/12/12 04:32:04;;;;;;;16.93;10.73;;;9.50;59.90;;;;;;5012675;28;20563;-40
2020/12/12 04:34:30;;;;;;;14.70;10.13;;;9.50;59.90;;;;;;5012870;28;20194;-40
2020/12/12 04:36:55;;;;;;;16.47;10.00;;;9.50;59.80;;;;;;5012466;28;20956;-40
2020/12/12 04:39:21;;;;;;;15.37;10.57;;;9.60;59.70;;;;;;5013051;28;20198;-40
2020/12/12 04:41:47;;;;;;;13.43;11.10;;;9.50;59.40;;;;;;5012185;28;20244;-40
2020/12/12 04:44:13;;;;;;;16.87;12.23;;;9.50;59.90;;;;;;5010788;28;20760;-41
2020/12/12 04:46:39;;;;;;;15.90;11.40;;;9.40;60.20;;;;;;5007038;28;20442;-40
2020/12/12 04:49:05;;;;;;;13.10;9.47;;;9.50;60.30;;;;;;5013029;28;20736;-40
2020/12/12 04:51:32;;;;;;;14.20;11.13;;;9.40;60.20;;;;;;5011754;28;20448;-40
2020/12/12 04:53:58;;;;;;;15.40;10.93;;;9.30;60.70;;;;;;5012375;28;20197;-40
2020/12/12 04:56:25;;;;;;;15.40;10.70;;;9.30;61.00;;;;;;5011856;28;20475;-40
2020/12/12 04:58:51;;;;;;;12.70;10.03;;;9.30;60.20;;;;;;5012084;28;21228;-40
2020/12/12 05:01:18;;;;;;;14.13;10.33;;;9.30;60.80;;;;;;5007216;28;20473;-40
2020/12/12 05:03:45;;;;;;;16.47;10.27;;;9.20;61.10;;;;;;5011084;28;20439;-40
2020/12/12 05:06:11;;;;;;;15.00;10.30;;;9.30;61.20;;;;;;5011562;28;20940;-40
2020/12/12 05:08:37;;;;;;;18.27;11.80;;;9.30;60.90;;;;;;5012596;28;20819;-40
2020/12/12 05:11:02;;;;;;;13.93;10.37;;;9.30;61.00;;;;;;5009760;28;20425;-40
2020/12/12 05:13:30;;;;;;;15.37;10.77;;;9.30;60.90;;;;;;5012329;28;20206;-40
2020/12/12 05:15:57;;;;;;;18.13;11.70;;;9.10;61.00;;;;;;5011644;28;20917;-40
2020/12/12 05:18:23;;;;;;;17.37;10.47;;;9.00;61.80;;;;;;5012347;28;20857;-40
2020/12/12 05:20:49;;;;;;;15.07;10.80;;;9.10;61.80;;;;;;5011776;28;20433;-40
2020/12/12 05:23:18;;;;;;;17.63;11.80;;;8.90;62.10;;;;;;5012156;28;20487;-40
2020/12/12 05:25:45;;;;;;;14.87;10.80;;;8.80;62.50;;;;;;5011809;28;20212;-40
2020/12/12 05:28:13;;;;;;;13.50;9.80;;;8.80;62.90;;;;;;5011792;28;20429;-40
2020/12/12 05:30:44;;;;;;;15.00;10.50;;;8.90;62.70;;;;;;5012055;28;20515;-40
2020/12/12 05:33:15;;;;;;;15.03;11.73;;;9.00;62.20;;;;;;5011725;28;20429;-41
2020/12/12 05:35:41;;;;;;;21.40;10.67;;;9.10;61.60;;;;;;5011952;28;20454;-40
2020/12/12 05:38:09;;;;;;;13.93;10.20;;;9.10;61.20;;;;;;5009804;28;21030;-40
2020/12/12 05:40:38;;;;;;;15.67;10.27;;;9.00;61.30;;;;;;5011246;28;20198;-40
2020/12/12 05:43:05;;;;;;;13.57;10.23;;;8.80;62.20;;;;;;5011082;28;20433;-40
2020/12/12 05:45:31;;;;;;;16.83;11.73;;;8.90;62.70;;;;;;5010618;28;20822;-40
2020/12/12 05:47:57;;;;;;;17.50;11.50;;;9.00;62.40;;;;;;5010553;28;20441;-40
2020/12/12 05:50:24;;;;;;;12.83;10.10;;;9.10;61.80;;;;;;5010898;28;20509;-40
2020/12/12 05:52:52;;;;;;;14.47;9.77;;;8.90;61.70;;;;;;5010569;28;20425;-40
2020/12/12 05:55:21;;;;;;;15.30;10.90;;;8.90;62.10;;;;;;5011269;28;20480;-40
2020/12/12 05:57:47;;;;;;;13.17;10.10;;;9.00;62.00;;;;;;5011393;28;20511;-40
2020/12/12 06:00:13;;;;;;;14.23;10.40;;;9.00;61.70;;;;;;5010948;28;20433;-40
2020/12/12 06:02:42;;;;;;;16.80;10.87;;;9.00;61.80;;;;;;5010300;28;20931;-40
2020/12/12 06:05:14;;;;;;;13.90;10.30;;;9.00;62.20;;;;;;5010331;28;20608;-40
2020/12/12 06:07:48;;;;;;;15.73;10.30;;;9.10;62.10;;;;;;5009282;28;20447;-40
2020/12/12 06:10:18;;;;;;;14.90;10.30;;;9.30;61.50;;;;;;5012714;28;20503;-40
2020/12/12 06:12:47;;;;;;;14.93;10.77;;;9.20;61.10;;;;;;5002652;28;20433;-40
2020/12/12 06:15:18;;;;;;;15.87;8.40;;;8.90;62.20;;;;;;5010394;28;20425;-41
2020/12/12 06:17:52;;;;;;;15.70;9.10;;;8.80;64.90;;;;;;5010580;28;20492;-41
2020/12/12 06:20:20;;;;;;;10.77;8.60;;;9.30;65.20;;;;;;5010596;28;20441;-41
2020/12/12 06:22:46;;;;;;;13.83;10.00;;;9.40;63.30;;;;;;5009924;28;20436;-41
2020/12/12 06:25:14;;;;;;;12.33;8.30;;;9.60;63.60;;;;;;5011159;28;20437;-41
2020/12/12 06:27:47;;;;;;;9.40;7.67;;;10.00;61.80;;;;;;5010182;28;20475;-41
2020/12/12 06:30:13;;;;;;;14.47;9.83;;;10.30;60.80;;;;;;5010124;28;20467;-41
2020/12/12 06:32:42;;;;;;;12.60;9.33;;;10.60;59.80;;;;;;5009822;28;20441;-41
2020/12/12 06:35:13;;;;;;;12.93;9.03;;;10.80;58.80;;;;;;5006133;28;20442;-40
2020/12/12 06:37:39;;;;;;;9.80;8.13;;;11.00;57.70;;;;;;5008250;28;20484;-41
2020/12/12 06:40:16;;;;;;;12.23;8.70;;;11.10;57.40;;;;;;5012250;28;20839;-41
2020/12/12 06:42:46;;;;;;;12.57;9.33;;;11.20;56.80;;;;;;5003275;28;20428;-40
2020/12/12 06:45:18;;;;;;;13.13;9.33;;;11.30;56.40;;;;;;5010476;28;20439;-40
2020/12/12 06:47:46;;;;;;;12.33;9.67;;;11.40;56.30;;;;;;5007536;28;20446;-40
2020/12/12 06:50:15;;;;;;;12.50;9.40;;;11.50;56.10;;;;;;5010582;28;20507;-40
2020/12/12 06:52:42;;;;;;;13.07;9.47;;;11.60;56.00;;;;;;5010176;28;20437;-41
2020/12/12 06:55:17;;;;;;;14.40;10.23;;;11.80;55.80;;;;;;5009228;28;20803;-40
2020/12/12 06:57:43;;;;;;;11.80;9.57;;;11.90;55.40;;;;;;5002983;28;20484;-40
2020/12/12 07:00:30;;;;;;;10.80;8.97;;;12.00;55.20;;;;;;5005624;28;20464;-40
2020/12/12 07:02:57;;;;;;;11.40;8.97;;;12.00;54.90;;;;;;5008153;28;20433;-41
2020/12/12 07:05:25;;;;;;;13.70;9.43;;;11.90;54.60;;;;;;5010519;28;20558;-41
2020/12/12 07:07:51;;;;;;;13.37;9.33;;;11.90;54.90;;;;;;5009859;28;20444;-41
2020/12/12 07:10:17;;;;;;;13.27;10.60;;;11.90;54.90;;;;;;5010467;28;20945;-41
2020/12/12 07:12:42;;;;;;;13.10;10.00;;;11.80;54.70;;;;;;5009958;28;20471;-41
2020/12/12 07:15:08;;;;;;;12.80;9.50;;;11.70;55.20;;;;;;5010496;28;20425;-41
2020/12/12 07:17:34;;;;;;;14.30;9.53;;;11.80;55.20;;;;;;5009913;28;20222;-41
2020/12/12 07:20:00;;;;;;;13.97;10.20;;;11.90;55.20;;;;;;5009555;28;20192;-41
2020/12/12 07:22:31;;;;;;;13.87;11.20;;;11.80;54.90;;;;;;5009729;28;20517;-41
2020/12/12 07:24:57;;;;;;;14.33;10.00;;;11.90;55.20;;;;;;5009450;28;20868;-41
2020/12/12 07:27:23;;;;;;;14.70;9.67;;;11.90;55.30;;;;;;5009662;28;20444;-40
2020/12/12 07:29:49;;;;;;;16.30;10.80;;;11.80;55.20;;;;;;5011140;28;20436;-40
2020/12/12 07:32:15;;;;;;;14.10;10.70;;;11.60;55.20;;;;;;5010333;28;20429;-41
2020/12/12 07:34:40;;;;;;;13.60;10.20;;;11.50;56.30;;;;;;5017999;28;20204;-41
2020/12/12 07:37:09;;;;;;;18.80;11.60;;;11.60;56.30;;;;;;5010583;28;20285;-41
2020/12/12 07:39:40;;;;;;;11.90;8.13;;;11.70;56.10;;;;;;5008118;28;20269;-41
2020/12/12 07:42:10;;;;;;;10.67;7.50;;;11.70;56.10;;;;;;5009750;28;20862;-40
2020/12/12 07:44:39;;;;;;;12.47;8.33;;;11.70;56.60;;;;;;5005237;28;20437;-40
2020/12/12 07:47:10;;;;;;;12.07;9.73;;;11.40;56.70;;;;;;5010698;28;20495;-40
2020/12/12 07:49:36;;;;;;;12.00;9.10;;;11.40;57.30;;;;;;5014082;28;20476;-41
2020/12/12 07:52:10;;;;;;;12.53;9.43;;;11.50;57.20;;;;;;5009022;28;20440;-40
2020/12/12 07:55:17;;;;;;;14.17;9.63;;;11.70;57.00;;;;;;5006477;28;20519;-41
2020/12/12 07:57:40;;;;;;;14.83;10.30;;;11.70;56.80;;;;;;5007392;28;20578;-41
2020/12/12 08:00:09;;;;;;;14.60;10.40;;;11.60;56.90;;;;;;5010260;28;20503;-41
2020/12/12 08:02:34;;;;;;;12.83;10.57;;;11.70;56.80;;;;;;5012753;28;20445;-41
2020/12/12 08:05:02;;;;;;;12.47;10.40;;;11.60;57.00;;;;;;5012391;28;20436;-41
2020/12/12 08:07:32;;;;;;;10.17;8.43;;;11.50;56.70;;;;;;5012614;28;20272;-41
2020/12/12 08:09:58;;;;;;;12.10;9.50;;;11.30;57.90;;;;;;5012089;28;20441;-41
2020/12/12 08:12:30;;;;;;;10.73;8.00;;;11.20;57.90;;;;;;5012896;28;20452;-41
2020/12/12 08:15:12;;;;;;;10.90;8.53;;;11.30;58.00;;;;;;5011360;28;20433;-41
2020/12/12 08:17:37;;;;;;;11.77;8.70;;;11.40;58.10;;;;;;5012092;28;20476;-41
2020/12/12 08:20:03;;;;;;;10.97;8.70;;;11.40;57.80;;;;;;5011419;28;20447;-40
2020/12/12 08:22:29;;;;;;;18.93;12.40;;;11.50;57.40;;;;;;5008686;28;20194;-41
2020/12/12 08:24:57;;;;;;;11.00;7.27;;;11.60;57.30;;;;;;5015524;28;20963;-40
2020/12/12 08:27:25;;;;;;;9.83;6.80;;;11.60;57.50;;;;;;5003149;28;20492;-40
2020/12/12 08:29:52;;;;;;;9.97;7.27;;;11.80;57.40;;;;;;5011526;28;20440;-40
2020/12/12 08:32:30;;;;;;;9.97;6.87;;;11.90;57.30;;;;;;5012401;28;20441;-40
2020/12/12 08:35:21;;;;;;;9.13;7.07;;;12.10;57.20;;;;;;5012833;28;20468;-40
2020/12/12 08:37:58;;;;;;;8.60;5.67;;;12.20;57.00;;;;;;5010236;28;20908;-40
2020/12/12 08:40:26;;;;;;;9.10;6.20;;;12.20;56.90;;;;;;5012119;28;20433;-40
2020/12/12 08:42:58;;;;;;;7.73;5.73;;;12.10;56.80;;;;;;5012779;28;20943;-40
2020/12/12 08:45:25;;;;;;;8.60;6.73;;;12.20;56.50;;;;;;5011927;28;20459;-40
2020/12/12 08:48:20;;;;;;;9.80;6.90;;;12.30;56.60;;;;;;5004434;28;20433;-40
2020/12/12 08:50:57;;;;;;;9.40;6.57;;;12.40;56.50;;;;;;5006158;28;20460;-43
2020/12/12 08:53:23;;;;;;;6.60;5.40;;;12.50;56.20;;;;;;4996673;28;20898;-40
2020/12/12 08:56:03;;;;;;;6.50;5.63;;;12.30;56.30;;;;;;5008123;28;20441;-40
2020/12/12 08:58:50;;;;;;;5.93;5.20;;;12.30;56.30;;;;;;5014520;28;20221;-40
2020/12/12 09:01:17;;;;;;;5.63;5.13;;;12.40;56.50;;;;;;5008627;28;20987;-40
2020/12/12 09:03:54;;;;;;;5.57;5.00;;;12.40;56.60;;;;;;5009979;28;20487;-40
2020/12/12 09:06:20;;;;;;;5.80;4.50;;;12.50;56.80;;;;;;5009230;28;20441;-40
2020/12/12 09:08:45;;;;;;;6.60;5.10;;;12.60;56.60;;;;;;5011178;28;20425;-40
2020/12/12 09:11:17;;;;;;;6.60;5.20;;;12.60;56.80;;;;;;5010448;28;20956;-40
2020/12/12 09:13:42;;;;;;;7.57;4.63;;;12.50;56.70;;;;;;5010127;28;20209;-40
2020/12/12 09:16:09;;;;;;;9.57;5.10;;;12.50;57.10;;;;;;5010413;28;20449;-40
2020/12/12 09:18:46;;;;;;;7.30;4.40;;;12.60;57.00;;;;;;5010553;28;20234;-40
2020/12/12 09:21:12;;;;;;;5.77;4.77;;;12.50;56.80;;;;;;5011984;28;20441;-40
2020/12/12 09:23:38;;;;;;;4.90;4.10;;;12.50;57.20;;;;;;5008463;28;20444;-40
2020/12/12 09:26:05;;;;;;;6.20;4.37;;;12.40;57.50;;;;;;5008739;28;20441;-40
2020/12/12 09:28:31;;;;;;;4.10;3.70;;;12.20;57.60;;;;;;5011177;28;20628;-40
2020/12/12 09:30:56;;;;;;;5.60;4.20;;;12.40;58.50;;;;;;5012526;28;20437;-41
2020/12/12 09:33:22;;;;;;;4.77;3.70;;;12.40;57.70;;;;;;5009876;28;20448;-40
2020/12/12 09:35:48;;;;;;;6.10;5.50;;;12.10;57.60;;;;;;5010059;28;20293;-40
2020/12/12 09:38:14;;;;;;;6.63;4.53;;;11.80;59.00;;;;;;5009880;28;20241;-40
2020/12/12 09:40:39;;;;;;;5.77;5.10;;;11.80;59.20;;;;;;5010165;28;20206;-40
2020/12/12 09:43:05;;;;;;;6.57;4.60;;;12.00;59.10;;;;;;5008974;28;20269;-40
2020/12/12 09:45:30;;;;;;;5.20;3.27;;;12.10;59.00;;;;;;5012084;28;20198;-40
2020/12/12 09:47:56;;;;;;;8.87;5.53;;;12.30;58.30;;;;;;5006647;28;20193;-40
2020/12/12 09:50:33;;;;;;;6.50;4.30;;;11.80;58.80;;;;;;5007377;28;20641;-40
2020/12/12 09:53:03;;;;;;;3.57;3.00;;;11.90;59.50;;;;;;5007017;28;20255;-41
2020/12/12 09:55:29;;;;;;;3.70;3.30;;;11.90;58.60;;;;;;5008334;28;20445;-40
2020/12/12 09:57:56;;;;;;;4.37;3.50;;;12.00;58.50;;;;;;5008227;28;20484;-40
2020/12/12 10:00:22;;;;;;;8.00;3.10;;;12.20;58.30;;;;;;5009626;28;20437;-40
2020/12/12 10:02:48;;;;;;;3.50;3.20;;;12.30;58.00;;;;;;5001386;28;20502;-41
2020/12/12 10:05:14;;;;;;;5.13;3.40;;;12.40;58.00;;;;;;5010683;28;20429;-40
2020/12/12 10:07:39;;;;;;;6.30;3.97;;;12.50;57.90;;;;;;5009410;28;20208;-41
2020/12/12 10:10:05;;;;;;;3.53;2.80;;;12.60;57.50;;;;;;5013717;28;20189;-42
2020/12/12 10:12:31;;;;;;;4.00;3.13;;;12.70;57.50;;;;;;5007166;28;20190;-40
2020/12/12 10:14:56;;;;;;;3.23;2.73;;;12.70;57.20;;;;;;5007185;28;20430;-41
2020/12/12 10:17:22;;;;;;;2.60;2.40;;;12.80;57.30;;;;;;5006159;28;20641;-41
2020/12/12 10:19:47;;;;;;;3.30;2.63;;;12.80;56.90;;;;;;5007119;28;20205;-42
2020/12/12 10:22:13;;;;;;;3.33;2.73;;;12.70;57.00;;;;;;5006794;28;20643;-40
2020/12/12 10:24:39;;;;;;;5.70;3.47;;;12.60;57.30;;;;;;5007556;28;20209;-42
2020/12/12 10:27:04;;;;;;;6.47;3.40;;;12.50;57.40;;;;;;5005306;28;20673;-41
2020/12/12 10:29:30;;;;;;;3.40;2.80;;;12.50;57.50;;;;;;5008914;28;20596;-41
2020/12/12 10:31:55;;;;;;;6.10;3.13;;;12.60;57.50;;;;;;5009518;28;20190;-41
2020/12/12 10:34:21;;;;;;;3.73;3.40;;;12.60;57.30;;;;;;5008615;28;20850;-41
2020/12/12 10:36:46;;;;;;;5.57;2.93;;;12.60;57.30;;;;;;5006829;28;20198;-41
2020/12/12 10:39:12;;;;;;;3.47;3.17;;;12.30;57.50;;;;;;5007268;28;20309;-41
2020/12/12 10:41:38;;;;;;;2.90;2.60;;;12.00;58.40;;;;;;5009801;28;20670;-41
2020/12/12 10:44:03;;;;;;;3.73;2.80;;;12.10;58.50;;;;;;5009702;28;20212;-41
2020/12/12 10:46:30;;;;;;;5.00;2.87;;;11.90;59.00;;;;;;5007362;28;20194;-41
2020/12/12 10:48:56;;;;;;;3.10;2.80;;;12.00;59.10;;;;;;5008117;28;20324;-41
2020/12/12 10:51:21;;;;;;;4.53;2.97;;;12.10;58.70;;;;;;5012301;28;20527;-41
2020/12/12 10:53:49;;;;;;;3.93;3.53;;;12.30;58.60;;;;;;5009722;28;20657;-41
2020/12/12 10:56:15;;;;;;;3.27;2.97;;;12.30;57.90;;;;;;5007752;28;20194;-41
2020/12/12 10:58:40;;;;;;;4.10;2.90;;;12.40;58.10;;;;;;5008873;28;20884;-41
2020/12/12 11:01:06;;;;;;;3.93;2.50;;;12.60;57.90;;;;;;5008667;28;20213;-41
2020/12/12 11:03:31;;;;;;;3.20;2.90;;;12.80;57.80;;;;;;5007995;28;20204;-41
2020/12/12 11:05:57;;;;;;;3.47;3.17;;;12.90;57.50;;;;;;5007086;28;20240;-41
2020/12/12 11:08:23;;;;;;;3.27;2.80;;;12.90;57.30;;;;;;5006271;28;20194;-41
2020/12/12 11:10:48;;;;;;;2.70;2.50;;;12.90;57.10;;;;;;5008637;28;20194;-40
2020/12/12 11:13:14;;;;;;;5.00;2.80;;;13.00;57.00;;;;;;5009226;28;20665;-41
2020/12/12 11:15:40;;;;;;;2.90;2.33;;;13.00;56.70;;;;;;5007357;28;20194;-41
2020/12/12 11:18:06;;;;;;;2.80;2.50;;;12.80;57.20;;;;;;5006962;28;20225;-40
2020/12/12 11:20:32;;;;;;;2.83;2.57;;;12.60;57.50;;;;;;5009417;28;20994;-41
2020/12/12 11:22:57;;;;;;;2.80;2.13;;;12.40;57.50;;;;;;5014556;28;20429;-40
2020/12/12 11:25:23;;;;;;;3.57;2.23;;;12.40;58.00;;;;;;5014753;28;20650;-40
2020/12/12 11:27:49;;;;;;;2.67;2.47;;;12.10;58.50;;;;;;5015469;28;20968;-40
2020/12/12 11:30:17;;;;;;;3.80;2.67;;;11.80;59.60;;;;;;5015236;28;20276;-40
2020/12/12 11:32:43;;;;;;;3.10;2.63;;;11.70;60.10;;;;;;5019203;28;20217;-41
2020/12/12 11:38:25;;;;;;;5.40;3.10;;;11.90;60.40;;;;;;5017736;28;20975;-40
2020/12/12 11:40:42;;;;;;;3.53;2.93;;;11.80;60.70;;;;;;5011622;28;20479;-40
2020/12/12 11:48:35;;;;;;;3.60;3.30;;;12.00;60.40;;;;;;5014252;28;20495;-40
2020/12/12 11:51:01;;;;;;;6.50;3.60;;;12.00;60.30;;;;;;5006649;28;20441;-40
2020/12/12 11:53:27;;;;;;;4.10;3.27;;;12.10;60.00;;;;;;5007914;28;20201;-41
2020/12/12 11:55:52;;;;;;;4.30;3.90;;;12.10;59.60;;;;;;5015038;28;20245;-41
2020/12/12 11:58:18;;;;;;;4.53;3.50;;;12.10;59.70;;;;;;5014443;28;20264;-41
2020/12/12 12:00:44;;;;;;;3.67;3.37;;;12.10;60.10;;;;;;5015867;28;20186;-41
2020/12/12 12:03:13;;;;;;;4.80;3.30;;;12.30;60.00;;;;;;5012134;28;20194;-40
2020/12/12 12:05:41;;;;;;;8.30;3.70;;;12.20;59.80;;;;;;5014070;28;20544;-40
2020/12/12 12:08:15;;;;;;;3.30;3.00;;;12.30;59.80;;;;;;5012511;28;20476;-40
2020/12/12 12:10:42;;;;;;;4.23;3.30;;;12.30;59.70;;;;;;5009736;28;20437;-40
2020/12/12 12:13:08;;;;;;;4.37;3.93;;;12.40;59.60;;;;;;5013578;28;21041;-41
2020/12/12 12:15:33;;;;;;;7.67;3.40;;;12.50;59.60;;;;;;5014756;28;20445;-40
2020/12/12 12:17:59;;;;;;;3.33;2.77;;;12.30;60.00;;;;;;5015161;28;20228;-40
2020/12/12 12:20:25;;;;;;;3.23;2.87;;;12.30;60.50;;;;;;5019046;28;20267;-41
2020/12/12 12:22:51;;;;;;;4.60;3.43;;;12.20;60.60;;;;;;5015511;28;20189;-40
2020/12/12 12:25:17;;;;;;;4.27;3.80;;;12.10;61.30;;;;;;5015568;28;20233;-41
2020/12/12 12:27:42;;;;;;;4.20;3.80;;;12.10;60.90;;;;;;5018978;28;20472;-41
2020/12/12 12:30:08;;;;;;;5.17;4.30;;;12.10;61.50;;;;;;5015598;28;20672;-40
2020/12/12 12:32:34;;;;;;;4.67;4.07;;;12.00;62.70;;;;;;5015171;28;20255;-41
2020/12/12 12:35:00;;;;;;;3.97;3.57;;;12.00;62.40;;;;;;5013967;28;20273;-41
2020/12/12 12:37:26;;;;;;;4.30;3.53;;;12.20;62.00;;;;;;5012361;28;20240;-40
2020/12/12 12:39:52;;;;;;;7.20;4.23;;;12.40;61.70;;;;;;5013628;28;20460;-41
2020/12/12 12:42:20;;;;;;;5.27;4.27;;;12.30;61.40;;;;;;5011977;28;20186;-41
2020/12/12 12:44:46;;;;;;;4.23;3.87;;;12.20;61.30;;;;;;5011915;28;20190;-41
2020/12/12 12:47:11;;;;;;;4.23;3.93;;;12.20;62.60;;;;;;5011562;28;20444;-41
2020/12/12 12:49:37;;;;;;;5.30;4.20;;;12.20;62.20;;;;;;5012304;28;20230;-40